createdAt,value
2022-12-15T00:00:22.822Z,0.00
2022-12-15T00:01:22.682Z,0.00
2022-12-15T00:02:22.764Z,0.00
2022-12-15T00:03:22.746Z,0.00
2022-12-15T00:04:22.482Z,0.00
2022-12-15T00:05:22.460Z,0.00
2022-12-15T00:06:22.445Z,0.00
2022-12-15T00:07:22.291Z,0.00
2022-12-15T00:08:22.242Z,0.00
2022-12-15T00:09:25.187Z,0.00
2022-12-15T00:10:22.124Z,0.00
2022-12-15T00:11:22.048Z,0.00
2022-12-15T00:12:22.010Z,0.00
2022-12-15T00:13:21.946Z,0.00
2022-12-15T00:14:21.861Z,0.00
2022-12-15T00:15:21.816Z,0.00
2022-12-15T00:16:21.848Z,0.00
2022-12-15T00:17:21.706Z,0.00
2022-12-15T00:18:21.624Z,0.00
2022-12-15T00:19:21.518Z,0.00
2022-12-15T00:20:21.471Z,0.00
2022-12-15T00:21:21.385Z,0.00
2022-12-15T00:22:21.371Z,0.00
2022-12-15T00:23:21.272Z,0.00
2022-12-15T00:24:21.178Z,0.00
2022-12-15T00:25:21.111Z,0.00
2022-12-15T00:26:21.070Z,0.00
2022-12-15T00:27:21.033Z,0.00
2022-12-15T00:28:20.974Z,0.00
2022-12-15T00:29:20.895Z,0.00
2022-12-15T00:30:20.852Z,0.00
2022-12-15T00:31:20.879Z,0.00
2022-12-15T00:32:20.689Z,0.00
2022-12-15T00:33:20.639Z,0.00
2022-12-15T00:34:20.562Z,0.00
2022-12-15T00:35:20.513Z,0.00
2022-12-15T00:36:20.471Z,0.00
2022-12-15T00:37:20.411Z,0.00
2022-12-15T00:38:20.296Z,0.00
2022-12-15T00:39:20.218Z,0.00
2022-12-15T00:40:20.138Z,0.00
2022-12-15T00:41:20.128Z,0.00
2022-12-15T00:42:20.064Z,0.00
2022-12-15T00:43:19.997Z,0.00
2022-12-15T00:44:20.859Z,0.00
2022-12-15T00:45:19.818Z,0.00
2022-12-15T00:46:19.817Z,0.00
2022-12-15T00:47:19.695Z,0.00
2022-12-15T00:48:19.712Z,0.00
2022-12-15T00:49:19.589Z,0.00
2022-12-15T00:50:19.555Z,0.00
2022-12-15T00:51:19.445Z,0.00
2022-12-15T00:52:19.407Z,0.00
2022-12-15T00:53:19.353Z,0.00
2022-12-15T00:54:19.255Z,0.00
2022-12-15T00:55:19.189Z,0.00
2022-12-15T00:56:20.096Z,0.00
2022-12-15T00:57:19.143Z,0.00
2022-12-15T00:58:18.998Z,0.00
2022-12-15T00:59:18.928Z,0.00
2022-12-15T01:00:18.883Z,0.00
2022-12-15T01:01:18.835Z,0.00
2022-12-15T01:02:18.900Z,0.00
2022-12-15T01:03:18.886Z,0.00
2022-12-15T01:04:18.744Z,0.00
2022-12-15T01:05:18.582Z,0.00
2022-12-15T01:06:18.483Z,0.00
2022-12-15T01:07:18.443Z,0.00
2022-12-15T01:08:18.342Z,0.00
2022-12-15T01:09:18.272Z,0.00
2022-12-15T01:10:18.206Z,0.00
2022-12-15T01:11:18.387Z,0.00
2022-12-15T01:12:18.105Z,0.00
2022-12-15T01:13:17.999Z,0.00
2022-12-15T01:14:17.925Z,0.00
2022-12-15T01:15:17.867Z,0.00
2022-12-15T01:16:17.941Z,0.00
2022-12-15T01:17:17.755Z,0.00
2022-12-15T01:18:17.719Z,0.00
2022-12-15T01:19:17.605Z,0.00
2022-12-15T01:20:17.565Z,0.00
2022-12-15T01:21:17.472Z,0.00
2022-12-15T01:22:17.405Z,0.00
2022-12-15T01:23:17.380Z,0.00
2022-12-15T01:24:17.327Z,0.00
2022-12-15T01:25:17.235Z,0.00
2022-12-15T01:26:17.206Z,0.00
2022-12-15T01:27:17.114Z,0.00
2022-12-15T01:28:17.046Z,0.00
2022-12-15T01:29:17.022Z,0.00
2022-12-15T01:30:16.927Z,0.00
2022-12-15T01:31:16.895Z,0.00
2022-12-15T01:32:16.758Z,0.00
2022-12-15T01:33:16.721Z,0.00
2022-12-15T01:34:16.682Z,0.00
2022-12-15T01:35:16.632Z,0.00
2022-12-15T01:36:16.495Z,0.00
2022-12-15T01:37:16.478Z,0.00
2022-12-15T01:38:16.398Z,0.00
2022-12-15T01:39:16.312Z,0.00
2022-12-15T01:40:16.255Z,0.00
2022-12-15T01:42:25.433Z,0.00
2022-12-15T01:43:26.322Z,0.00
2022-12-15T01:44:26.288Z,0.00
2022-12-15T01:45:26.222Z,0.00
2022-12-15T01:46:26.211Z,0.00
2022-12-15T01:47:26.097Z,0.00
2022-12-15T01:48:26.051Z,0.00
2022-12-15T01:49:25.981Z,0.00
2022-12-15T01:50:25.926Z,0.00
2022-12-15T01:51:25.873Z,0.00
2022-12-15T01:52:25.807Z,0.00
2022-12-15T01:53:25.981Z,0.00
2022-12-15T01:54:25.605Z,0.00
2022-12-15T01:55:25.590Z,0.00
2022-12-15T01:56:25.532Z,0.00
2022-12-15T01:57:25.419Z,0.00
2022-12-15T01:58:25.397Z,0.00
2022-12-15T01:59:25.324Z,0.00
2022-12-15T02:00:25.310Z,0.00
2022-12-15T02:01:25.263Z,0.00
2022-12-15T02:02:25.241Z,0.00
2022-12-15T02:03:25.124Z,0.00
2022-12-15T02:04:25.015Z,0.00
2022-12-15T02:05:24.966Z,0.00
2022-12-15T02:06:24.880Z,0.00
2022-12-15T02:07:24.786Z,0.00
2022-12-15T02:08:24.722Z,0.00
2022-12-15T02:09:24.660Z,0.00
2022-12-15T02:10:24.620Z,0.00
2022-12-15T02:13:03.592Z,0.00
2022-12-15T02:14:04.501Z,0.00
2022-12-15T02:15:04.470Z,0.00
2022-12-15T02:16:04.431Z,0.00
2022-12-15T02:17:04.364Z,0.00
2022-12-15T02:18:04.229Z,0.00
2022-12-15T02:19:04.200Z,0.00
2022-12-15T02:20:04.086Z,0.00
2022-12-15T02:21:04.051Z,0.00
2022-12-15T02:22:04.017Z,0.00
2022-12-15T02:23:03.955Z,0.00
2022-12-15T02:24:03.855Z,0.00
2022-12-15T02:25:03.804Z,0.00
2022-12-15T02:26:03.732Z,0.00
2022-12-15T02:27:03.628Z,0.00
2022-12-15T02:28:03.566Z,0.00
2022-12-15T02:29:03.545Z,0.00
2022-12-15T02:30:03.462Z,0.00
2022-12-15T02:31:03.391Z,0.00
2022-12-15T02:32:03.429Z,0.00
2022-12-15T02:33:03.270Z,0.00
2022-12-15T02:34:03.180Z,0.00
2022-12-15T02:35:24.151Z,0.00
2022-12-15T02:36:03.102Z,0.00
2022-12-15T02:37:03.028Z,0.00
2022-12-15T02:38:02.939Z,0.00
2022-12-15T02:39:02.849Z,0.00
2022-12-15T02:40:02.782Z,0.00
2022-12-15T02:41:02.749Z,0.00
2022-12-15T02:42:02.700Z,0.00
2022-12-15T02:43:02.643Z,0.00
2022-12-15T02:44:02.528Z,0.00
2022-12-15T02:45:02.534Z,0.00
2022-12-15T02:46:02.451Z,0.00
2022-12-15T02:47:02.366Z,0.00
2022-12-15T02:48:02.338Z,0.00
2022-12-15T02:49:02.276Z,0.00
2022-12-15T02:50:02.156Z,0.00
2022-12-15T02:51:02.123Z,0.00
2022-12-15T02:52:02.028Z,0.00
2022-12-15T02:53:22.984Z,0.00
2022-12-15T02:54:01.942Z,0.00
2022-12-15T02:55:01.875Z,0.00
2022-12-15T02:56:01.777Z,0.00
2022-12-15T02:57:01.708Z,0.00
2022-12-15T02:58:01.633Z,0.00
2022-12-15T02:59:01.587Z,0.00
2022-12-15T03:00:01.503Z,0.00
2022-12-15T03:01:01.554Z,0.00
2022-12-15T03:02:01.570Z,0.00
2022-12-15T03:03:01.492Z,0.00
2022-12-15T03:04:01.216Z,0.00
2022-12-15T03:05:01.196Z,0.00
2022-12-15T03:06:01.176Z,0.00
2022-12-15T03:07:01.651Z,0.00
2022-12-15T03:08:00.984Z,0.00
2022-12-15T03:09:00.935Z,0.00
2022-12-15T03:10:00.866Z,0.00
2022-12-15T03:11:00.842Z,0.00
2022-12-15T03:12:00.726Z,0.00
2022-12-15T03:13:00.660Z,0.00
2022-12-15T03:14:00.718Z,0.00
2022-12-15T03:15:00.520Z,0.00
2022-12-15T03:16:00.564Z,0.00
2022-12-15T03:17:00.537Z,0.00
2022-12-15T03:18:00.338Z,0.00
2022-12-15T03:19:00.266Z,0.00
2022-12-15T03:20:00.237Z,0.00
2022-12-15T03:21:00.158Z,0.00
2022-12-15T03:22:00.137Z,0.00
2022-12-15T03:23:00.033Z,0.00
2022-12-15T03:23:59.943Z,0.00
2022-12-15T03:24:59.905Z,0.00
2022-12-15T03:25:59.794Z,0.00
2022-12-15T03:26:59.744Z,0.00
2022-12-15T03:27:59.674Z,0.00
2022-12-15T03:29:20.601Z,0.00
2022-12-15T03:29:59.581Z,0.00
2022-12-15T03:30:59.488Z,0.00
2022-12-15T03:31:59.454Z,0.00
2022-12-15T03:32:59.378Z,0.00
2022-12-15T03:33:59.287Z,0.00
2022-12-15T03:34:59.249Z,0.00
2022-12-15T03:35:59.173Z,0.00
2022-12-15T03:36:59.117Z,0.00
2022-12-15T03:37:59.032Z,0.00
2022-12-15T03:38:59.014Z,0.00
2022-12-15T03:39:58.906Z,0.00
2022-12-15T03:40:58.866Z,0.00
2022-12-15T03:41:58.796Z,0.00
2022-12-15T03:42:58.714Z,0.00
2022-12-15T03:43:58.649Z,0.00
2022-12-15T03:44:58.546Z,0.00
2022-12-15T03:45:58.572Z,0.00
2022-12-15T03:48:37.420Z,0.00
2022-12-15T03:49:38.382Z,0.00
2022-12-15T03:50:38.312Z,0.00
2022-12-15T03:51:38.238Z,0.00
2022-12-15T03:52:38.196Z,0.00
2022-12-15T03:53:38.115Z,0.00
2022-12-15T03:54:38.050Z,0.00
2022-12-15T03:55:37.984Z,0.00
2022-12-15T03:56:37.898Z,0.00
2022-12-15T03:57:37.852Z,0.00
2022-12-15T03:58:37.849Z,0.00
2022-12-15T03:59:37.766Z,0.00
2022-12-15T04:00:37.655Z,0.00
2022-12-15T04:01:37.764Z,0.00
2022-12-15T04:02:37.651Z,0.00
2022-12-15T04:03:37.493Z,0.00
2022-12-15T04:05:46.637Z,0.00
2022-12-15T04:06:47.515Z,0.00
2022-12-15T04:07:47.487Z,0.00
2022-12-15T04:08:47.388Z,0.00
2022-12-15T04:09:47.318Z,0.00
2022-12-15T04:10:47.268Z,0.00
2022-12-15T04:11:47.165Z,0.00
2022-12-15T04:12:47.127Z,0.00
2022-12-15T04:13:47.087Z,0.00
2022-12-15T04:14:47.021Z,0.00
2022-12-15T04:15:46.933Z,0.00
2022-12-15T04:16:46.892Z,0.00
2022-12-15T04:17:46.795Z,0.00
2022-12-15T04:18:46.764Z,0.00
2022-12-15T04:19:46.674Z,0.00
2022-12-15T04:20:46.604Z,0.00
2022-12-15T04:21:46.511Z,0.00
2022-12-15T04:23:07.470Z,0.00
2022-12-15T04:23:46.391Z,0.00
2022-12-15T04:24:46.352Z,0.00
2022-12-15T04:25:46.292Z,0.00
2022-12-15T04:26:46.239Z,0.00
2022-12-15T04:27:46.203Z,0.00
2022-12-15T04:28:46.187Z,0.00
2022-12-15T04:29:46.036Z,0.00
2022-12-15T04:30:46.044Z,0.00
2022-12-15T04:31:45.861Z,0.00
2022-12-15T04:32:49.832Z,0.00
2022-12-15T04:33:45.808Z,0.00
2022-12-15T04:34:45.760Z,0.00
2022-12-15T04:35:45.690Z,0.00
2022-12-15T04:36:45.629Z,0.00
2022-12-15T04:37:45.523Z,0.00
2022-12-15T04:38:50.208Z,0.00
2022-12-15T04:39:45.398Z,0.00
2022-12-15T04:40:45.345Z,0.00
2022-12-15T04:41:45.210Z,0.00
2022-12-15T04:42:45.177Z,0.00
2022-12-15T04:43:45.144Z,0.00
2022-12-15T04:44:45.081Z,0.00
2022-12-15T04:45:45.103Z,0.00
2022-12-15T04:46:45.004Z,0.00
2022-12-15T04:47:44.901Z,0.00
2022-12-15T04:48:44.803Z,0.00
2022-12-15T04:49:44.726Z,0.00
2022-12-15T04:50:44.664Z,0.00
2022-12-15T04:51:44.619Z,0.00
2022-12-15T04:52:44.552Z,0.00
2022-12-15T04:53:44.497Z,0.00
2022-12-15T04:54:44.397Z,0.00
2022-12-15T04:55:44.323Z,0.00
2022-12-15T04:56:44.258Z,0.00
2022-12-15T04:57:44.236Z,0.00
2022-12-15T05:01:23.715Z,0.00
2022-12-15T05:02:03.587Z,0.00
2022-12-15T05:03:03.433Z,0.00
2022-12-15T05:04:03.418Z,0.00
2022-12-15T05:05:03.294Z,0.00
2022-12-15T05:06:03.209Z,0.00
2022-12-15T05:07:03.197Z,0.00
2022-12-15T05:08:03.107Z,0.00
2022-12-15T05:09:02.985Z,0.00
2022-12-15T05:10:03.895Z,0.00
2022-12-15T05:11:02.886Z,0.00
2022-12-15T05:12:02.822Z,0.00
2022-12-15T05:13:02.795Z,0.00
2022-12-15T05:14:02.727Z,0.00
2022-12-15T05:15:02.644Z,0.00
2022-12-15T05:16:02.608Z,0.00
2022-12-15T05:17:02.568Z,0.00
2022-12-15T05:18:02.405Z,0.00
2022-12-15T05:19:23.374Z,0.00
2022-12-15T05:20:02.288Z,0.00
2022-12-15T05:21:02.240Z,0.00
2022-12-15T05:22:02.191Z,0.00
2022-12-15T05:23:02.135Z,0.00
2022-12-15T05:24:02.035Z,0.00
2022-12-15T05:26:11.191Z,0.00
2022-12-15T05:27:12.130Z,0.00
2022-12-15T05:28:12.073Z,0.00
2022-12-15T05:29:11.961Z,0.00
2022-12-15T05:30:11.897Z,0.00
2022-12-15T05:31:11.864Z,0.00
2022-12-15T05:32:11.779Z,0.00
2022-12-15T05:33:11.702Z,0.00
2022-12-15T05:34:11.602Z,0.00
2022-12-15T05:35:11.533Z,0.00
2022-12-15T05:36:11.552Z,0.00
2022-12-15T05:37:32.436Z,0.00
2022-12-15T05:38:11.398Z,0.00
2022-12-15T05:39:11.277Z,0.00
2022-12-15T05:40:11.257Z,0.00
2022-12-15T05:41:11.177Z,0.00
2022-12-15T05:42:11.106Z,0.00
2022-12-15T05:43:11.080Z,0.00
2022-12-15T05:44:10.997Z,0.00
2022-12-15T05:45:10.880Z,0.00
2022-12-15T05:46:10.871Z,0.00
2022-12-15T05:47:10.773Z,0.00
2022-12-15T05:48:10.725Z,0.00
2022-12-15T05:49:10.638Z,0.00
2022-12-15T05:50:10.557Z,0.00
2022-12-15T05:51:10.514Z,0.00
2022-12-15T05:52:10.452Z,0.00
2022-12-15T05:53:10.418Z,0.00
2022-12-15T05:54:10.358Z,0.00
2022-12-15T05:55:31.268Z,0.00
2022-12-15T05:56:10.250Z,0.00
2022-12-15T05:57:10.156Z,0.00
2022-12-15T05:58:10.151Z,0.00
2022-12-15T05:59:10.029Z,0.00
2022-12-15T06:00:09.983Z,0.00
2022-12-15T06:01:09.937Z,0.00
2022-12-15T06:02:09.972Z,0.00
2022-12-15T06:03:09.878Z,0.00
2022-12-15T06:04:09.785Z,0.00
2022-12-15T06:05:09.755Z,0.00
2022-12-15T06:06:09.611Z,0.00
2022-12-15T06:07:09.836Z,0.00
2022-12-15T06:08:09.484Z,0.00
2022-12-15T06:09:09.376Z,0.00
2022-12-15T06:10:09.335Z,0.00
2022-12-15T06:11:09.385Z,0.00
2022-12-15T06:12:09.199Z,0.00
2022-12-15T06:13:09.151Z,0.00
2022-12-15T06:14:09.050Z,0.00
2022-12-15T06:15:09.021Z,0.00
2022-12-15T06:16:08.957Z,0.00
2022-12-15T06:17:08.901Z,0.00
2022-12-15T06:18:08.807Z,0.00
2022-12-15T06:19:08.779Z,0.00
2022-12-15T06:20:08.677Z,0.00
2022-12-15T06:21:08.593Z,0.00
2022-12-15T06:22:08.551Z,0.00
2022-12-15T06:23:08.490Z,0.00
2022-12-15T06:24:08.501Z,0.00
2022-12-15T06:25:08.364Z,0.00
2022-12-15T06:26:08.291Z,0.00
2022-12-15T06:27:08.236Z,0.00
2022-12-15T06:28:08.191Z,0.00
2022-12-15T06:29:08.148Z,0.00
2022-12-15T06:30:08.028Z,0.00
2022-12-15T06:33:47.390Z,0.00
2022-12-15T06:34:27.368Z,0.00
2022-12-15T06:35:27.302Z,0.00
2022-12-15T06:36:27.206Z,0.00
2022-12-15T06:37:27.168Z,0.00
2022-12-15T06:38:27.110Z,0.00
2022-12-15T06:39:26.989Z,0.00
2022-12-15T06:40:26.887Z,0.00
2022-12-15T06:41:26.901Z,0.00
2022-12-15T06:42:26.820Z,0.00
2022-12-15T06:43:26.671Z,0.00
2022-12-15T06:44:26.634Z,0.00
2022-12-15T06:45:26.586Z,0.00
2022-12-15T06:46:26.504Z,0.00
2022-12-15T06:47:26.509Z,0.00
2022-12-15T06:48:26.516Z,0.00
2022-12-15T06:49:26.373Z,0.00
2022-12-15T06:50:27.252Z,0.00
2022-12-15T06:51:49.364Z,0.00
2022-12-15T06:52:29.399Z,0.00
2022-12-15T06:53:28.130Z,0.00
2022-12-15T06:54:29.856Z,0.00
2022-12-15T06:55:33.347Z,0.00
2022-12-15T06:56:32.999Z,0.00
2022-12-15T06:57:27.303Z,0.00
2022-12-15T06:58:25.723Z,0.00
2022-12-15T06:59:25.679Z,0.00
2022-12-15T07:00:25.619Z,0.00
2022-12-15T07:01:25.596Z,0.00
2022-12-15T07:02:29.100Z,0.00
2022-12-15T07:03:25.647Z,0.00
2022-12-15T07:04:25.387Z,0.00
2022-12-15T07:05:25.278Z,0.00
2022-12-15T07:06:25.198Z,0.00
2022-12-15T07:07:25.235Z,0.00
2022-12-15T07:08:30.450Z,0.00
2022-12-15T07:09:25.022Z,0.00
2022-12-15T07:10:24.940Z,0.00
2022-12-15T07:11:24.892Z,0.00
2022-12-15T07:12:24.808Z,0.00
2022-12-15T07:13:24.771Z,0.00
2022-12-15T07:14:24.703Z,0.00
2022-12-15T07:15:24.650Z,0.00
2022-12-15T07:16:24.599Z,0.00
2022-12-15T07:17:24.455Z,0.00
2022-12-15T07:18:24.447Z,0.00
2022-12-15T07:19:24.363Z,0.00
2022-12-15T07:20:28.803Z,0.00
2022-12-15T07:21:24.224Z,0.00
2022-12-15T07:22:24.186Z,0.00
2022-12-15T07:23:45.979Z,0.00
2022-12-15T07:24:24.057Z,0.00
2022-12-15T07:25:23.960Z,0.00
2022-12-15T07:26:23.952Z,0.00
2022-12-15T07:27:23.880Z,0.00
2022-12-15T07:28:25.925Z,0.00
2022-12-15T07:29:23.901Z,0.00
2022-12-15T07:30:23.635Z,0.00
2022-12-15T07:31:23.696Z,0.00
2022-12-15T07:32:23.555Z,0.00
2022-12-15T07:33:23.496Z,0.00
2022-12-15T07:34:23.376Z,0.00
2022-12-15T07:35:23.338Z,0.00
2022-12-15T07:36:23.266Z,0.00
2022-12-15T07:37:23.216Z,0.00
2022-12-15T07:38:23.154Z,0.00
2022-12-15T07:39:23.143Z,0.00
2022-12-15T07:40:23.034Z,0.00
2022-12-15T07:41:22.940Z,0.00
2022-12-15T07:42:22.854Z,0.00
2022-12-15T07:43:22.819Z,0.00
2022-12-15T07:44:22.699Z,0.00
2022-12-15T07:45:22.699Z,0.00
2022-12-15T07:46:22.691Z,5.62
2022-12-15T07:47:22.564Z,5.62
2022-12-15T07:48:22.467Z,5.62
2022-12-15T07:49:22.379Z,5.62
2022-12-15T07:50:22.335Z,5.62
2022-12-15T07:51:22.265Z,5.62
2022-12-15T07:52:22.211Z,5.62
2022-12-15T07:53:22.121Z,5.62
2022-12-15T07:54:22.081Z,5.62
2022-12-15T07:55:43.436Z,5.62
2022-12-15T07:56:21.954Z,5.62
2022-12-15T07:57:21.963Z,5.62
2022-12-15T07:58:21.788Z,5.62
2022-12-15T07:59:21.776Z,5.62
2022-12-15T08:00:21.663Z,11.25
2022-12-15T08:01:21.822Z,11.25
2022-12-15T08:02:21.782Z,5.62
2022-12-15T08:04:30.661Z,5.62
2022-12-15T08:05:31.628Z,5.62
2022-12-15T08:06:31.545Z,11.25
2022-12-15T08:07:31.464Z,11.25
2022-12-15T08:08:31.864Z,11.25
2022-12-15T08:09:31.365Z,11.25
2022-12-15T08:10:31.287Z,11.25
2022-12-15T08:11:31.249Z,16.88
2022-12-15T08:12:31.164Z,16.88
2022-12-15T08:14:01.422Z,16.88
2022-12-15T08:14:31.043Z,16.88
2022-12-15T08:15:30.967Z,16.88
2022-12-15T08:16:30.995Z,16.88
2022-12-15T08:17:30.808Z,16.88
2022-12-15T08:18:30.765Z,11.25
2022-12-15T08:19:30.723Z,11.25
2022-12-15T08:20:30.666Z,11.25
2022-12-15T08:21:51.565Z,16.88
2022-12-15T08:22:30.483Z,16.88
2022-12-15T08:23:30.939Z,16.88
2022-12-15T08:24:30.825Z,16.88
2022-12-15T08:25:31.306Z,16.88
2022-12-15T08:26:32.444Z,16.88
2022-12-15T08:27:33.680Z,16.88
2022-12-15T08:28:31.272Z,16.88
2022-12-15T08:30:29.990Z,16.88
2022-12-15T08:31:30.763Z,16.88
2022-12-15T08:32:29.885Z,16.88
2022-12-15T08:33:30.236Z,16.88
2022-12-15T08:34:29.752Z,16.88
2022-12-15T08:35:55.312Z,16.88
2022-12-15T08:36:29.631Z,16.88
2022-12-15T08:37:29.498Z,16.88
2022-12-15T08:38:29.462Z,16.88
2022-12-15T08:39:30.069Z,16.88
2022-12-15T08:40:29.320Z,16.88
2022-12-15T08:41:29.237Z,22.50
2022-12-15T08:42:29.240Z,22.50
2022-12-15T08:43:29.471Z,16.88
2022-12-15T08:44:29.071Z,22.50
2022-12-15T08:45:29.088Z,16.88
2022-12-15T08:46:29.029Z,16.88
2022-12-15T08:47:28.896Z,22.50
2022-12-15T08:48:28.812Z,22.50
2022-12-15T08:49:28.789Z,16.88
2022-12-15T08:50:28.671Z,16.88
2022-12-15T08:51:28.657Z,22.50
2022-12-15T08:52:28.581Z,22.50
2022-12-15T08:53:41.394Z,22.50
2022-12-15T08:54:28.398Z,22.50
2022-12-15T08:55:28.360Z,22.50
2022-12-15T08:56:28.343Z,22.50
2022-12-15T08:57:28.311Z,22.50
2022-12-15T08:58:28.183Z,33.75
2022-12-15T08:59:28.124Z,28.12
2022-12-15T09:00:28.046Z,28.12
2022-12-15T09:01:28.194Z,28.12
2022-12-15T09:02:28.030Z,28.12
2022-12-15T09:03:28.158Z,28.12
2022-12-15T09:04:27.861Z,28.12
2022-12-15T09:05:27.732Z,28.12
2022-12-15T09:06:27.638Z,28.12
2022-12-15T09:07:27.638Z,28.12
2022-12-15T09:08:27.511Z,28.12
2022-12-15T09:09:27.479Z,28.12
2022-12-15T09:10:27.435Z,28.12
2022-12-15T09:11:27.321Z,28.12
2022-12-15T09:12:27.286Z,28.12
2022-12-15T09:13:27.161Z,28.12
2022-12-15T09:14:29.433Z,33.75
2022-12-15T09:16:27.080Z,22.50
2022-12-15T09:17:27.030Z,28.12
2022-12-15T09:18:26.890Z,28.12
2022-12-15T09:19:26.822Z,28.12
2022-12-15T09:20:26.748Z,33.75
2022-12-15T09:21:26.720Z,33.75
2022-12-15T09:22:26.594Z,33.75
2022-12-15T09:23:26.513Z,33.75
2022-12-15T09:24:34.832Z,33.75
2022-12-15T09:25:26.421Z,33.75
2022-12-15T09:26:26.375Z,39.38
2022-12-15T09:27:26.313Z,33.75
2022-12-15T09:28:26.181Z,45.00
2022-12-15T09:29:26.155Z,45.00
2022-12-15T09:30:26.273Z,39.38
2022-12-15T09:31:26.156Z,39.38
2022-12-15T09:32:25.947Z,39.38
2022-12-15T09:33:46.899Z,39.38
2022-12-15T09:34:25.819Z,39.38
2022-12-15T09:35:25.751Z,45.00
2022-12-15T09:36:25.688Z,45.00
2022-12-15T09:37:25.647Z,50.62
2022-12-15T09:38:25.588Z,56.25
2022-12-15T09:39:25.515Z,50.62
2022-12-15T09:40:25.458Z,50.62
2022-12-15T09:41:25.359Z,50.62
2022-12-15T09:42:25.309Z,61.88
2022-12-15T09:43:46.559Z,50.62
2022-12-15T09:44:25.156Z,56.25
2022-12-15T09:45:25.161Z,45.00
2022-12-15T09:46:25.119Z,45.00
2022-12-15T09:47:24.951Z,50.62
2022-12-15T09:48:24.930Z,50.62
2022-12-15T09:49:24.847Z,56.25
2022-12-15T09:50:24.802Z,61.88
2022-12-15T09:51:24.767Z,50.62
2022-12-15T09:52:24.702Z,45.00
2022-12-15T09:53:53.587Z,45.00
2022-12-15T09:54:24.611Z,45.00
2022-12-15T09:55:24.521Z,39.38
2022-12-15T09:56:24.415Z,39.38
2022-12-15T09:57:24.310Z,45.00
2022-12-15T09:58:24.271Z,50.62
2022-12-15T09:59:24.254Z,50.62
2022-12-15T10:00:24.266Z,50.62
2022-12-15T10:01:24.112Z,50.62
2022-12-15T10:02:24.134Z,56.25
2022-12-15T10:03:24.059Z,56.25
2022-12-15T10:04:23.956Z,50.62
2022-12-15T10:05:33.674Z,50.62
2022-12-15T10:06:28.335Z,50.62
2022-12-15T10:07:23.697Z,56.25
2022-12-15T10:08:23.615Z,56.25
2022-12-15T10:09:44.569Z,56.25
2022-12-15T10:10:23.546Z,50.62
2022-12-15T10:11:23.534Z,50.62
2022-12-15T10:12:23.348Z,50.62
2022-12-15T10:13:23.312Z,56.25
2022-12-15T10:14:23.253Z,56.25
2022-12-15T10:15:23.178Z,56.25
2022-12-15T10:16:23.185Z,50.62
2022-12-15T10:17:23.129Z,50.62
2022-12-15T10:18:22.961Z,50.62
2022-12-15T10:19:22.919Z,50.62
2022-12-15T10:20:22.826Z,50.62
2022-12-15T10:21:22.786Z,56.25
2022-12-15T10:22:22.696Z,50.62
2022-12-15T10:23:22.671Z,50.62
2022-12-15T10:24:59.785Z,56.25
2022-12-15T10:25:29.782Z,56.25
2022-12-15T10:26:22.462Z,56.25
2022-12-15T10:27:22.514Z,56.25
2022-12-15T10:28:22.404Z,56.25
2022-12-15T10:29:22.276Z,56.25
2022-12-15T10:30:22.240Z,56.25
2022-12-15T10:31:22.789Z,50.62
2022-12-15T10:32:22.043Z,56.25
2022-12-15T10:33:22.071Z,61.88
2022-12-15T10:34:21.938Z,61.88
2022-12-15T10:35:21.917Z,61.88
2022-12-15T10:36:21.833Z,56.25
2022-12-15T10:37:21.722Z,56.25
2022-12-15T10:38:21.655Z,56.25
2022-12-15T10:39:21.575Z,56.25
2022-12-15T10:40:21.540Z,56.25
2022-12-15T10:41:21.484Z,56.25
2022-12-15T10:42:21.391Z,56.25
2022-12-15T10:43:21.355Z,56.25
2022-12-15T10:44:21.278Z,56.25
2022-12-15T10:45:21.231Z,56.25
2022-12-15T10:46:21.215Z,61.88
2022-12-15T10:47:21.092Z,61.88
2022-12-15T10:48:21.011Z,67.50
2022-12-15T10:49:21.620Z,61.88
2022-12-15T10:50:24.453Z,61.88
2022-12-15T10:51:21.732Z,61.88
2022-12-15T10:52:20.839Z,61.88
2022-12-15T10:53:20.687Z,67.50
2022-12-15T10:54:20.630Z,61.88
2022-12-15T10:55:20.558Z,61.88
2022-12-15T10:56:20.501Z,61.88
2022-12-15T10:57:20.433Z,61.88
2022-12-15T10:58:20.689Z,61.88
2022-12-15T10:59:20.297Z,56.25
2022-12-15T11:00:20.283Z,56.25
2022-12-15T11:01:20.371Z,56.25
2022-12-15T11:02:24.096Z,56.25
2022-12-15T11:03:20.280Z,56.25
2022-12-15T11:04:20.007Z,50.62
2022-12-15T11:05:19.957Z,56.25
2022-12-15T11:06:19.887Z,50.62
2022-12-15T11:07:19.817Z,50.62
2022-12-15T11:08:19.680Z,56.25
2022-12-15T11:09:19.670Z,50.62
2022-12-15T11:10:19.639Z,45.00
2022-12-15T11:11:19.708Z,45.00
2022-12-15T11:12:19.442Z,45.00
2022-12-15T11:13:19.396Z,45.00
2022-12-15T11:14:19.331Z,45.00
2022-12-15T11:15:19.262Z,45.00
2022-12-15T11:16:19.298Z,45.00
2022-12-15T11:17:19.127Z,45.00
2022-12-15T11:18:19.071Z,45.00
2022-12-15T11:19:19.002Z,45.00
2022-12-15T11:20:19.627Z,45.00
2022-12-15T11:21:18.888Z,45.00
2022-12-15T11:22:18.783Z,50.62
2022-12-15T11:23:18.733Z,50.62
2022-12-15T11:24:18.679Z,50.62
2022-12-15T11:25:18.720Z,50.62
2022-12-15T11:26:18.553Z,50.62
2022-12-15T11:27:18.506Z,56.25
2022-12-15T11:28:18.414Z,56.25
2022-12-15T11:29:18.375Z,56.25
2022-12-15T11:30:18.282Z,50.62
2022-12-15T11:31:18.222Z,50.62
2022-12-15T11:32:18.144Z,56.25
2022-12-15T11:33:20.158Z,50.62
2022-12-15T11:34:18.015Z,56.25
2022-12-15T11:35:18.077Z,61.88
2022-12-15T11:36:17.901Z,67.50
2022-12-15T11:37:17.915Z,61.88
2022-12-15T11:38:17.799Z,56.25
2022-12-15T11:39:17.852Z,61.88
2022-12-15T11:40:18.488Z,61.88
2022-12-15T11:41:17.558Z,61.88
2022-12-15T11:42:17.513Z,61.88
2022-12-15T11:43:17.782Z,56.25
2022-12-15T11:44:17.417Z,50.62
2022-12-15T11:45:17.313Z,56.25
2022-12-15T11:46:17.343Z,56.25
2022-12-15T11:47:17.204Z,56.25
2022-12-15T11:48:17.137Z,56.25
2022-12-15T11:49:17.120Z,56.25
2022-12-15T11:50:17.013Z,50.62
2022-12-15T11:51:16.914Z,50.62
2022-12-15T11:52:16.882Z,56.25
2022-12-15T11:53:16.826Z,56.25
2022-12-15T11:54:16.700Z,56.25
2022-12-15T11:55:16.656Z,61.88
2022-12-15T11:56:16.612Z,67.50
2022-12-15T11:57:16.992Z,67.50
2022-12-15T11:58:16.545Z,61.88
2022-12-15T11:59:16.433Z,61.88
2022-12-15T12:00:17.085Z,61.88
2022-12-15T12:01:16.296Z,56.25
2022-12-15T12:02:16.336Z,61.88
2022-12-15T12:03:16.197Z,56.25
2022-12-15T12:04:16.061Z,56.25
2022-12-15T12:05:16.055Z,56.25
2022-12-15T12:06:15.971Z,50.62
2022-12-15T12:07:15.885Z,56.25
2022-12-15T12:08:15.814Z,56.25
2022-12-15T12:09:15.749Z,61.88
2022-12-15T12:10:15.718Z,61.88
2022-12-15T12:11:17.631Z,56.25
2022-12-15T12:12:15.587Z,56.25
2022-12-15T12:13:15.519Z,61.88
2022-12-15T12:14:15.417Z,50.62
2022-12-15T12:15:15.395Z,50.62
2022-12-15T12:16:15.296Z,56.25
2022-12-15T12:17:15.234Z,56.25
2022-12-15T12:18:15.159Z,61.88
2022-12-15T12:19:15.127Z,56.25
2022-12-15T12:20:15.060Z,56.25
2022-12-15T12:21:14.991Z,56.25
2022-12-15T12:22:14.930Z,56.25
2022-12-15T12:23:14.823Z,61.88
2022-12-15T12:24:14.754Z,61.88
2022-12-15T12:25:14.730Z,61.88
2022-12-15T12:26:14.639Z,61.88
2022-12-15T12:27:14.630Z,61.88
2022-12-15T12:28:14.487Z,61.88
2022-12-15T12:29:14.482Z,61.88
2022-12-15T12:30:14.502Z,56.25
2022-12-15T12:31:14.312Z,56.25
2022-12-15T12:32:14.246Z,56.25
2022-12-15T12:33:14.200Z,56.25
2022-12-15T12:34:14.149Z,50.62
2022-12-15T14:11:51.886Z,22.50
2022-12-15T14:12:28.557Z,22.50
2022-12-15T14:13:28.923Z,22.50
2022-12-15T14:14:28.436Z,16.88
2022-12-15T14:15:28.366Z,16.88
2022-12-15T14:16:28.802Z,16.88
2022-12-15T14:17:28.188Z,16.88
2022-12-15T14:18:28.185Z,16.88
2022-12-15T14:19:32.065Z,16.88
2022-12-15T14:20:28.028Z,16.88
2022-12-15T14:21:27.970Z,16.88
2022-12-15T14:22:29.758Z,16.88
2022-12-15T14:23:30.493Z,16.88
2022-12-15T14:24:43.018Z,16.88
2022-12-15T14:25:27.717Z,16.88
2022-12-15T14:26:27.635Z,16.88
2022-12-15T14:27:27.842Z,16.88
2022-12-15T14:28:27.512Z,16.88
2022-12-15T14:29:27.470Z,11.25
2022-12-15T14:30:27.402Z,11.25
2022-12-15T14:31:27.332Z,11.25
2022-12-15T14:32:27.242Z,11.25
2022-12-15T14:33:29.708Z,11.25
2022-12-15T14:34:27.215Z,11.25
2022-12-15T14:35:27.054Z,11.25
2022-12-15T14:36:27.020Z,11.25
2022-12-15T14:37:26.920Z,11.25
2022-12-15T14:38:26.861Z,11.25
2022-12-15T14:39:26.765Z,11.25
2022-12-15T14:40:29.165Z,11.25
2022-12-15T14:41:26.659Z,11.25
2022-12-15T14:42:26.569Z,11.25
2022-12-15T14:43:26.503Z,11.25
2022-12-15T14:44:32.256Z,11.25
2022-12-15T14:45:26.437Z,11.25
2022-12-15T14:46:47.323Z,11.25
2022-12-15T14:47:26.262Z,11.25
2022-12-15T14:48:42.412Z,5.62
2022-12-15T14:49:26.178Z,5.62
2022-12-15T14:50:26.072Z,5.62
2022-12-15T14:51:26.013Z,5.62
2022-12-15T14:52:25.975Z,5.62
2022-12-15T14:53:25.886Z,5.62
2022-12-15T14:54:25.848Z,5.62
2022-12-15T14:55:25.783Z,5.62
2022-12-15T14:56:30.107Z,5.62
2022-12-15T14:57:25.629Z,5.62
2022-12-15T14:58:25.549Z,5.62